KJVL/JVL METAR and TAF weather

Enter ICAO airport designator
Station Type Date Time Source
KJVL METAR 2019/05/27 09:15 UTC NOAA

KJVL 270915Z AUTO 10003KT 10SM SCT055 13/09 A3002 RMK AO2


Station Type Date Time Source
KJVL Decoded METAR 2019/05/27 09:15 UTC NOAA

Janesville / Rock County, WI, United States (KJVL) 42-37N 089-02W
May 27, 2019 - 05:15 AM EDT / 2019.05.27 0915 UTC
Wind: from the E (100 degrees) at 3 MPH (3 KT):0
Visibility: 10 mile(s):0
Sky conditions: partly cloudy
Temperature: 55 F (13 C)
Dew Point: 48 F (9 C)
Relative Humidity: 76%
Pressure (altimeter): 30.02 in. Hg (1016 hPa)
ob: KJVL 270915Z AUTO 10003KT 10SM SCT055 13/09 A3002 RMK AO2
cycle: 9

Station Type Date Time Source
KJVL TAF UTC NOAA

Error!

Example: see airport list